Terminal Aerodrome Forecast
Issued by NWS Jackson, MS

Home | Current Version | Previous Version | Text Only | Print | Product List | Glossary On
Versions: 1 2 3 4 5 6 7 8 9 10 11 12 13
000
FTUS44 KJAN 281100
TAFMEI
TAF
KMEI 281140Z 2812/2912 VRB04KT P6SM -RA BKN005 OVC080
     FM281800 36007KT 5SM RA BR OVC006
     FM290600 02005KT P6SM -RA BKN007 OVC015=

USA.gov is the U.S. government's official web portal to all federal, state and local government web resources and services.